sensor_id;sensor_type;location;lat;lon;timestamp;temperature;humidity
38265;DHT22;24062;47.480;8.768;2023-02-28T00:01:32;0.30;64.50
38265;DHT22;24062;47.480;8.768;2023-02-28T00:03:59;0.30;64.50
38265;DHT22;24062;47.480;8.768;2023-02-28T00:06:27;0.20;64.10
38265;DHT22;24062;47.480;8.768;2023-02-28T00:08:54;0.10;64.30
38265;DHT22;24062;47.480;8.768;2023-02-28T00:11:21;0.20;64.90
38265;DHT22;24062;47.480;8.768;2023-02-28T00:13:49;0.30;65.30
38265;DHT22;24062;47.480;8.768;2023-02-28T00:16:17;0.30;64.90
38265;DHT22;24062;47.480;8.768;2023-02-28T00:18:45;0.30;64.50
38265;DHT22;24062;47.480;8.768;2023-02-28T00:21:12;0.20;64.60
38265;DHT22;24062;47.480;8.768;2023-02-28T00:23:41;0.20;65.00
38265;DHT22;24062;47.480;8.768;2023-02-28T00:26:08;0.30;65.00
38265;DHT22;24062;47.480;8.768;2023-02-28T00:28:35;0.20;64.90
38265;DHT22;24062;47.480;8.768;2023-02-28T00:31:02;0.30;65.10
38265;DHT22;24062;47.480;8.768;2023-02-28T00:33:29;0.30;65.00
38265;DHT22;24062;47.480;8.768;2023-02-28T00:36:07;0.30;64.70
38265;DHT22;24062;47.480;8.768;2023-02-28T00:38:35;0.30;64.90
38265;DHT22;24062;47.480;8.768;2023-02-28T00:41:03;0.30;64.80
38265;DHT22;24062;47.480;8.768;2023-02-28T00:43:32;0.30;64.70
38265;DHT22;24062;47.480;8.768;2023-02-28T00:45:59;0.30;65.00
38265;DHT22;24062;47.480;8.768;2023-02-28T00:48:26;0.30;64.90
38265;DHT22;24062;47.480;8.768;2023-02-28T00:50:53;0.40;65.40
38265;DHT22;24062;47.480;8.768;2023-02-28T00:53:20;0.50;65.50
38265;DHT22;24062;47.480;8.768;2023-02-28T00:55:48;0.50;64.90
38265;DHT22;24062;47.480;8.768;2023-02-28T00:58:16;0.50;65.10
38265;DHT22;24062;47.480;8.768;2023-02-28T01:00:43;0.60;65.30
38265;DHT22;24062;47.480;8.768;2023-02-28T01:03:14;0.70;65.50
38265;DHT22;24062;47.480;8.768;2023-02-28T01:05:41;0.60;64.50
38265;DHT22;24062;47.480;8.768;2023-02-28T01:08:08;0.50;64.40
38265;DHT22;24062;47.480;8.768;2023-02-28T01:10:35;0.40;64.20
38265;DHT22;24062;47.480;8.768;2023-02-28T01:13:04;0.30;64.40
38265;DHT22;24062;47.480;8.768;2023-02-28T01:15:32;0.30;64.80
38265;DHT22;24062;47.480;8.768;2023-02-28T01:17:59;0.30;64.20
38265;DHT22;24062;47.480;8.768;2023-02-28T01:20:26;0.30;64.80
38265;DHT22;24062;47.480;8.768;2023-02-28T01:22:53;0.30;64.70
38265;DHT22;24062;47.480;8.768;2023-02-28T01:25:20;0.30;64.50
38265;DHT22;24062;47.480;8.768;2023-02-28T01:27:47;0.30;65.00
38265;DHT22;24062;47.480;8.768;2023-02-28T01:30:14;0.40;65.00
38265;DHT22;24062;47.480;8.768;2023-02-28T01:32:42;0.40;64.60
38265;DHT22;24062;47.480;8.768;2023-02-28T01:35:09;0.40;64.50
38265;DHT22;24062;47.480;8.768;2023-02-28T01:37:37;0.30;64.20
38265;DHT22;24062;47.480;8.768;2023-02-28T01:40:05;0.30;64.50
38265;DHT22;24062;47.480;8.768;2023-02-28T01:42:32;0.30;64.80
38265;DHT22;24062;47.480;8.768;2023-02-28T01:45:04;0.30;65.00
38265;DHT22;24062;47.480;8.768;2023-02-28T01:47:36;0.40;65.10
38265;DHT22;24062;47.480;8.768;2023-02-28T01:50:09;0.50;65.00
38265;DHT22;24062;47.480;8.768;2023-02-28T01:52:38;0.40;63.90
38265;DHT22;24062;47.480;8.768;2023-02-28T01:55:06;0.30;64.10
38265;DHT22;24062;47.480;8.768;2023-02-28T01:57:36;0.30;64.60
38265;DHT22;24062;47.480;8.768;2023-02-28T02:00:08;0.20;64.40
38265;DHT22;24062;47.480;8.768;2023-02-28T02:02:36;0.20;64.70
38265;DHT22;24062;47.480;8.768;2023-02-28T02:05:07;0.30;64.80
38265;DHT22;24062;47.480;8.768;2023-02-28T02:07:37;0.20;64.70
38265;DHT22;24062;47.480;8.768;2023-02-28T02:10:10;0.30;64.90
38265;DHT22;24062;47.480;8.768;2023-02-28T02:12:54;0.30;64.40
38265;DHT22;24062;47.480;8.768;2023-02-28T02:15:30;0.20;64.50
38265;DHT22;24062;47.480;8.768;2023-02-28T02:18:03;0.30;65.20
38265;DHT22;24062;47.480;8.768;2023-02-28T02:24:12;0.30;64.10
38265;DHT22;24062;47.480;8.768;2023-02-28T02:27:03;0.20;64.20
38265;DHT22;24062;47.480;8.768;2023-02-28T02:29:44;0.20;64.40
38265;DHT22;24062;47.480;8.768;2023-02-28T02:32:45;0.20;64.90
38265;DHT22;24062;47.480;8.768;2023-02-28T02:35:19;0.20;64.80
38265;DHT22;24062;47.480;8.768;2023-02-28T02:37:52;0.20;64.70
38265;DHT22;24062;47.480;8.768;2023-02-28T02:40:27;0.30;65.00
38265;DHT22;24062;47.480;8.768;2023-02-28T02:43:01;0.20;65.00
38265;DHT22;24062;47.480;8.768;2023-02-28T02:45:33;0.30;64.70
38265;DHT22;24062;47.480;8.768;2023-02-28T02:48:03;0.20;64.60
38265;DHT22;24062;47.480;8.768;2023-02-28T02:50:36;0.30;65.10
38265;DHT22;24062;47.480;8.768;2023-02-28T02:53:04;0.30;65.10
38265;DHT22;24062;47.480;8.768;2023-02-28T02:55:36;0.30;65.30
38265;DHT22;24062;47.480;8.768;2023-02-28T02:58:08;0.30;64.60
38265;DHT22;24062;47.480;8.768;2023-02-28T03:00:39;0.30;64.50
38265;DHT22;24062;47.480;8.768;2023-02-28T03:03:09;0.30;64.60
38265;DHT22;24062;47.480;8.768;2023-02-28T03:05:44;0.30;64.70
38265;DHT22;24062;47.480;8.768;2023-02-28T03:08:12;0.20;64.50
38265;DHT22;24062;47.480;8.768;2023-02-28T03:10:41;0.20;64.20
38265;DHT22;24062;47.480;8.768;2023-02-28T03:13:45;0.20;64.80
38265;DHT22;24062;47.480;8.768;2023-02-28T03:16:41;0.10;64.50
38265;DHT22;24062;47.480;8.768;2023-02-28T03:19:30;0.10;64.60
38265;DHT22;24062;47.480;8.768;2023-02-28T03:22:12;0.20;64.90
38265;DHT22;24062;47.480;8.768;2023-02-28T03:24:45;0.10;64.40
38265;DHT22;24062;47.480;8.768;2023-02-28T03:27:21;0.10;64.70
38265;DHT22;24062;47.480;8.768;2023-02-28T03:29:54;0.20;64.90
38265;DHT22;24062;47.480;8.768;2023-02-28T03:32:27;0.20;64.80
38265;DHT22;24062;47.480;8.768;2023-02-28T03:34:58;0.20;65.00
38265;DHT22;24062;47.480;8.768;2023-02-28T03:37:31;0.20;65.90
38265;DHT22;24062;47.480;8.768;2023-02-28T03:40:04;0.20;64.90
38265;DHT22;24062;47.480;8.768;2023-02-28T03:42:36;0.20;64.90
38265;DHT22;24062;47.480;8.768;2023-02-28T03:45:08;0.20;64.90
38265;DHT22;24062;47.480;8.768;2023-02-28T03:47:40;0.20;64.60
38265;DHT22;24062;47.480;8.768;2023-02-28T03:50:12;0.20;64.60
38265;DHT22;24062;47.480;8.768;2023-02-28T03:52:46;0.20;64.70
38265;DHT22;24062;47.480;8.768;2023-02-28T03:55:15;0.20;64.80
38265;DHT22;24062;47.480;8.768;2023-02-28T03:57:52;0.20;64.70
38265;DHT22;24062;47.480;8.768;2023-02-28T04:00:27;0.20;64.90
38265;DHT22;24062;47.480;8.768;2023-02-28T04:02:54;0.20;65.70
38265;DHT22;24062;47.480;8.768;2023-02-28T04:05:22;0.10;64.50
38265;DHT22;24062;47.480;8.768;2023-02-28T04:07:51;0.10;64.90
38265;DHT22;24062;47.480;8.768;2023-02-28T04:10:18;0.10;65.00
38265;DHT22;24062;47.480;8.768;2023-02-28T04:12:45;0.10;65.10
38265;DHT22;24062;47.480;8.768;2023-02-28T04:15:12;0.10;65.20
38265;DHT22;24062;47.480;8.768;2023-02-28T04:17:39;0.20;65.80
38265;DHT22;24062;47.480;8.768;2023-02-28T04:20:07;0.10;64.70
38265;DHT22;24062;47.480;8.768;2023-02-28T04:22:36;0.10;65.00
38265;DHT22;24062;47.480;8.768;2023-02-28T04:25:06;0.00;64.80
38265;DHT22;24062;47.480;8.768;2023-02-28T04:27:33;0.10;65.10
38265;DHT22;24062;47.480;8.768;2023-02-28T04:30:00;0.10;65.20
38265;DHT22;24062;47.480;8.768;2023-02-28T04:32:27;0.10;65.00
38265;DHT22;24062;47.480;8.768;2023-02-28T04:34:54;0.10;65.30
38265;DHT22;24062;47.480;8.768;2023-02-28T04:37:21;0.20;65.30
38265;DHT22;24062;47.480;8.768;2023-02-28T04:39:53;0.20;65.10
38265;DHT22;24062;47.480;8.768;2023-02-28T04:42:21;0.20;64.90
38265;DHT22;24062;47.480;8.768;2023-02-28T04:44:48;0.20;65.00
38265;DHT22;24062;47.480;8.768;2023-02-28T04:47:15;0.20;64.60
38265;DHT22;24062;47.480;8.768;2023-02-28T04:49:42;0.10;64.80
38265;DHT22;24062;47.480;8.768;2023-02-28T04:52:09;0.10;65.00
38265;DHT22;24062;47.480;8.768;2023-02-28T04:54:36;0.20;65.40
38265;DHT22;24062;47.480;8.768;2023-02-28T04:57:04;0.20;65.10
38265;DHT22;24062;47.480;8.768;2023-02-28T04:59:33;0.30;65.10
38265;DHT22;24062;47.480;8.768;2023-02-28T05:02:00;0.20;65.00
38265;DHT22;24062;47.480;8.768;2023-02-28T05:04:32;0.20;65.00
38265;DHT22;24062;47.480;8.768;2023-02-28T05:07:00;0.30;65.10
38265;DHT22;24062;47.480;8.768;2023-02-28T05:09:27;0.20;64.40
38265;DHT22;24062;47.480;8.768;2023-02-28T05:11:55;0.20;64.30
38265;DHT22;24062;47.480;8.768;2023-02-28T05:14:22;0.10;64.80
38265;DHT22;24062;47.480;8.768;2023-02-28T05:16:50;0.10;65.10
38265;DHT22;24062;47.480;8.768;2023-02-28T05:19:17;0.20;65.50
38265;DHT22;24062;47.480;8.768;2023-02-28T05:21:50;0.20;64.60
38265;DHT22;24062;47.480;8.768;2023-02-28T05:24:18;0.20;64.60
38265;DHT22;24062;47.480;8.768;2023-02-28T05:26:49;0.30;64.90
38265;DHT22;24062;47.480;8.768;2023-02-28T05:29:17;0.30;65.00
38265;DHT22;24062;47.480;8.768;2023-02-28T05:31:44;0.40;64.70
38265;DHT22;24062;47.480;8.768;2023-02-28T05:34:13;0.40;65.10
38265;DHT22;24062;47.480;8.768;2023-02-28T05:36:41;0.50;64.50
38265;DHT22;24062;47.480;8.768;2023-02-28T05:39:08;0.40;64.10
38265;DHT22;24062;47.480;8.768;2023-02-28T05:41:39;0.30;64.50
38265;DHT22;24062;47.480;8.768;2023-02-28T05:44:06;0.40;64.90
38265;DHT22;24062;47.480;8.768;2023-02-28T05:46:33;0.40;64.90
38265;DHT22;24062;47.480;8.768;2023-02-28T05:49:00;0.40;64.50
38265;DHT22;24062;47.480;8.768;2023-02-28T05:51:29;0.40;64.70
38265;DHT22;24062;47.480;8.768;2023-02-28T05:53:59;0.40;64.50
38265;DHT22;24062;47.480;8.768;2023-02-28T05:56:27;0.30;63.90
38265;DHT22;24062;47.480;8.768;2023-02-28T05:58:54;0.20;63.80
38265;DHT22;24062;47.480;8.768;2023-02-28T06:01:24;0.20;64.40
38265;DHT22;24062;47.480;8.768;2023-02-28T06:03:51;0.30;64.90
38265;DHT22;24062;47.480;8.768;2023-02-28T06:06:18;0.30;64.60
38265;DHT22;24062;47.480;8.768;2023-02-28T06:08:47;0.40;64.60
38265;DHT22;24062;47.480;8.768;2023-02-28T06:11:14;0.30;63.90
38265;DHT22;24062;47.480;8.768;2023-02-28T06:13:40;0.20;64.00
38265;DHT22;24062;47.480;8.768;2023-02-28T06:16:09;0.20;64.10
38265;DHT22;24062;47.480;8.768;2023-02-28T06:18:37;0.20;64.40
38265;DHT22;24062;47.480;8.768;2023-02-28T06:21:04;0.20;64.90
38265;DHT22;24062;47.480;8.768;2023-02-28T06:23:31;0.20;64.40
38265;DHT22;24062;47.480;8.768;2023-02-28T06:25:59;0.20;64.10
38265;DHT22;24062;47.480;8.768;2023-02-28T06:28:27;0.20;63.90
38265;DHT22;24062;47.480;8.768;2023-02-28T06:30:54;0.20;64.10
38265;DHT22;24062;47.480;8.768;2023-02-28T06:33:21;0.20;64.30
38265;DHT22;24062;47.480;8.768;2023-02-28T06:35:50;0.10;63.90
38265;DHT22;24062;47.480;8.768;2023-02-28T06:38:17;0.10;63.60
38265;DHT22;24062;47.480;8.768;2023-02-28T06:40:44;0.00;63.70
38265;DHT22;24062;47.480;8.768;2023-02-28T06:43:13;0.00;64.30
38265;DHT22;24062;47.480;8.768;2023-02-28T06:45:42;0.10;64.50
38265;DHT22;24062;47.480;8.768;2023-02-28T06:48:09;0.10;64.20
38265;DHT22;24062;47.480;8.768;2023-02-28T06:50:36;0.20;63.90
38265;DHT22;24062;47.480;8.768;2023-02-28T06:53:03;0.10;64.10
38265;DHT22;24062;47.480;8.768;2023-02-28T06:55:31;0.20;64.20
38265;DHT22;24062;47.480;8.768;2023-02-28T06:57:58;0.20;64.20
38265;DHT22;24062;47.480;8.768;2023-02-28T07:00:26;0.30;64.30
38265;DHT22;24062;47.480;8.768;2023-02-28T07:02:53;0.30;64.20
38265;DHT22;24062;47.480;8.768;2023-02-28T07:05:21;0.30;63.90
38265;DHT22;24062;47.480;8.768;2023-02-28T07:07:48;0.30;64.00
38265;DHT22;24062;47.480;8.768;2023-02-28T07:10:15;0.30;64.10
38265;DHT22;24062;47.480;8.768;2023-02-28T07:12:42;0.30;64.10
38265;DHT22;24062;47.480;8.768;2023-02-28T07:15:10;0.40;63.90
38265;DHT22;24062;47.480;8.768;2023-02-28T07:17:39;0.40;63.80
38265;DHT22;24062;47.480;8.768;2023-02-28T07:20:07;0.30;63.90
38265;DHT22;24062;47.480;8.768;2023-02-28T07:22:34;0.40;63.90
38265;DHT22;24062;47.480;8.768;2023-02-28T07:25:01;0.30;63.70
38265;DHT22;24062;47.480;8.768;2023-02-28T07:27:28;0.30;63.40
38265;DHT22;24062;47.480;8.768;2023-02-28T07:29:55;0.20;63.20
38265;DHT22;24062;47.480;8.768;2023-02-28T07:32:22;0.20;63.70
38265;DHT22;24062;47.480;8.768;2023-02-28T07:34:50;0.20;63.70
38265;DHT22;24062;47.480;8.768;2023-02-28T07:37:17;0.20;63.60
38265;DHT22;24062;47.480;8.768;2023-02-28T07:39:44;0.30;64.30
38265;DHT22;24062;47.480;8.768;2023-02-28T07:42:11;0.40;64.40
38265;DHT22;24062;47.480;8.768;2023-02-28T07:44:38;0.50;64.00
38265;DHT22;24062;47.480;8.768;2023-02-28T07:47:07;0.50;63.70
38265;DHT22;24062;47.480;8.768;2023-02-28T07:49:35;0.50;63.70
38265;DHT22;24062;47.480;8.768;2023-02-28T07:52:04;0.40;64.10
38265;DHT22;24062;47.480;8.768;2023-02-28T07:54:31;0.50;64.20
38265;DHT22;24062;47.480;8.768;2023-02-28T07:56:58;0.40;63.50
38265;DHT22;24062;47.480;8.768;2023-02-28T07:59:25;0.40;64.00
38265;DHT22;24062;47.480;8.768;2023-02-28T08:01:52;0.30;63.70
38265;DHT22;24062;47.480;8.768;2023-02-28T08:04:19;0.30;63.90
38265;DHT22;24062;47.480;8.768;2023-02-28T08:06:46;0.30;64.00
38265;DHT22;24062;47.480;8.768;2023-02-28T08:09:14;0.40;64.60
38265;DHT22;24062;47.480;8.768;2023-02-28T08:11:41;0.50;64.80
38265;DHT22;24062;47.480;8.768;2023-02-28T08:14:08;0.50;64.30
38265;DHT22;24062;47.480;8.768;2023-02-28T08:16:35;0.50;64.10
38265;DHT22;24062;47.480;8.768;2023-02-28T08:19:02;0.70;64.90
38265;DHT22;24062;47.480;8.768;2023-02-28T08:21:29;0.70;64.40
38265;DHT22;24062;47.480;8.768;2023-02-28T08:23:56;0.80;64.80
38265;DHT22;24062;47.480;8.768;2023-02-28T08:26:24;0.90;64.40
38265;DHT22;24062;47.480;8.768;2023-02-28T08:28:51;0.90;64.10
38265;DHT22;24062;47.480;8.768;2023-02-28T08:31:18;1.00;64.60
38265;DHT22;24062;47.480;8.768;2023-02-28T08:33:46;1.20;65.00
38265;DHT22;24062;47.480;8.768;2023-02-28T08:36:14;1.30;64.10
38265;DHT22;24062;47.480;8.768;2023-02-28T08:38:41;1.30;64.30
38265;DHT22;24062;47.480;8.768;2023-02-28T08:41:11;1.30;63.90
38265;DHT22;24062;47.480;8.768;2023-02-28T08:43:40;1.30;63.40
38265;DHT22;24062;47.480;8.768;2023-02-28T08:46:08;1.30;63.70
38265;DHT22;24062;47.480;8.768;2023-02-28T08:48:37;1.30;63.20
38265;DHT22;24062;47.480;8.768;2023-02-28T08:51:06;1.30;63.70
38265;DHT22;24062;47.480;8.768;2023-02-28T08:53:34;1.30;63.60
38265;DHT22;24062;47.480;8.768;2023-02-28T08:56:04;1.40;63.10
38265;DHT22;24062;47.480;8.768;2023-02-28T08:58:31;1.40;63.70
38265;DHT22;24062;47.480;8.768;2023-02-28T09:01:00;1.50;63.70
38265;DHT22;24062;47.480;8.768;2023-02-28T09:03:27;1.60;63.10
38265;DHT22;24062;47.480;8.768;2023-02-28T09:05:55;1.60;63.40
38265;DHT22;24062;47.480;8.768;2023-02-28T09:08:22;1.70;63.90
38265;DHT22;24062;47.480;8.768;2023-02-28T09:10:49;1.70;63.00
38265;DHT22;24062;47.480;8.768;2023-02-28T09:13:17;1.70;63.20
38265;DHT22;24062;47.480;8.768;2023-02-28T09:15:45;1.80;63.30
38265;DHT22;24062;47.480;8.768;2023-02-28T09:18:13;2.00;64.20
38265;DHT22;24062;47.480;8.768;2023-02-28T09:20:40;2.20;64.30
38265;DHT22;24062;47.480;8.768;2023-02-28T09:23:08;2.20;63.30
38265;DHT22;24062;47.480;8.768;2023-02-28T09:25:35;2.20;62.90
38265;DHT22;24062;47.480;8.768;2023-02-28T09:28:03;2.20;62.70
38265;DHT22;24062;47.480;8.768;2023-02-28T09:30:31;2.10;63.00
38265;DHT22;24062;47.480;8.768;2023-02-28T09:32:58;2.10;62.50
38265;DHT22;24062;47.480;8.768;2023-02-28T09:35:26;2.00;61.60
38265;DHT22;24062;47.480;8.768;2023-02-28T09:37:53;2.00;61.90
38265;DHT22;24062;47.480;8.768;2023-02-28T09:40:22;1.90;61.70
38265;DHT22;24062;47.480;8.768;2023-02-28T09:42:52;1.80;61.70
38265;DHT22;24062;47.480;8.768;2023-02-28T09:45:26;1.80;61.80
38265;DHT22;24062;47.480;8.768;2023-02-28T09:47:57;1.70;61.90
38265;DHT22;24062;47.480;8.768;2023-02-28T09:50:33;1.80;62.30
38265;DHT22;24062;47.480;8.768;2023-02-28T09:53:03;1.90;62.60
38265;DHT22;24062;47.480;8.768;2023-02-28T09:55:33;2.00;62.40
38265;DHT22;24062;47.480;8.768;2023-02-28T09:58:04;2.20;63.10
38265;DHT22;24062;47.480;8.768;2023-02-28T10:00:34;2.20;61.60
38265;DHT22;24062;47.480;8.768;2023-02-28T10:03:36;2.20;60.70
38265;DHT22;24062;47.480;8.768;2023-02-28T10:06:13;2.10;60.80
38265;DHT22;24062;47.480;8.768;2023-02-28T10:08:44;2.00;61.50
38265;DHT22;24062;47.480;8.768;2023-02-28T10:11:16;2.20;62.30
38265;DHT22;24062;47.480;8.768;2023-02-28T10:13:50;2.30;60.90
38265;DHT22;24062;47.480;8.768;2023-02-28T10:16:24;2.20;60.20
38265;DHT22;24062;47.480;8.768;2023-02-28T10:18:56;2.10;60.40
38265;DHT22;24062;47.480;8.768;2023-02-28T10:21:28;2.00;59.90
38265;DHT22;24062;47.480;8.768;2023-02-28T10:24:03;2.00;60.70
38265;DHT22;24062;47.480;8.768;2023-02-28T10:26:31;2.10;60.80
38265;DHT22;24062;47.480;8.768;2023-02-28T10:28:59;2.20;60.60
38265;DHT22;24062;47.480;8.768;2023-02-28T10:31:26;2.20;61.10
38265;DHT22;24062;47.480;8.768;2023-02-28T10:33:53;2.40;61.70
38265;DHT22;24062;47.480;8.768;2023-02-28T10:36:21;2.60;61.30
38265;DHT22;24062;47.480;8.768;2023-02-28T10:38:49;2.60;60.90
38265;DHT22;24062;47.480;8.768;2023-02-28T10:41:27;2.60;59.80
38265;DHT22;24062;47.480;8.768;2023-02-28T10:44:13;2.50;60.40
38265;DHT22;24062;47.480;8.768;2023-02-28T10:46:40;2.60;60.60
38265;DHT22;24062;47.480;8.768;2023-02-28T10:49:14;2.70;60.90
38265;DHT22;24062;47.480;8.768;2023-02-28T10:51:41;2.70;60.30
38265;DHT22;24062;47.480;8.768;2023-02-28T10:54:18;2.70;59.70
38265;DHT22;24062;47.480;8.768;2023-02-28T10:56:45;2.50;59.70
38265;DHT22;24062;47.480;8.768;2023-02-28T10:59:27;2.60;60.50
38265;DHT22;24062;47.480;8.768;2023-02-28T11:01:55;2.60;60.10
38265;DHT22;24062;47.480;8.768;2023-02-28T11:04:33;2.60;59.90
38265;DHT22;24062;47.480;8.768;2023-02-28T11:07:03;2.70;60.50
38265;DHT22;24062;47.480;8.768;2023-02-28T11:09:34;2.70;59.40
38265;DHT22;24062;47.480;8.768;2023-02-28T11:12:02;2.60;58.80
38265;DHT22;24062;47.480;8.768;2023-02-28T11:14:33;2.30;58.80
38265;DHT22;24062;47.480;8.768;2023-02-28T11:17:13;2.20;59.40
38265;DHT22;24062;47.480;8.768;2023-02-28T11:19:45;2.40;59.70
38265;DHT22;24062;47.480;8.768;2023-02-28T11:22:18;2.50;60.50
38265;DHT22;24062;47.480;8.768;2023-02-28T11:24:49;2.80;60.00
38265;DHT22;24062;47.480;8.768;2023-02-28T11:27:49;2.80;59.40
38265;DHT22;24062;47.480;8.768;2023-02-28T11:30:29;2.70;59.70
38265;DHT22;24062;47.480;8.768;2023-02-28T11:32:57;2.90;60.20
38265;DHT22;24062;47.480;8.768;2023-02-28T11:35:27;3.10;59.70
38265;DHT22;24062;47.480;8.768;2023-02-28T11:37:55;3.20;59.70
38265;DHT22;24062;47.480;8.768;2023-02-28T11:40:30;3.20;58.90
38265;DHT22;24062;47.480;8.768;2023-02-28T11:43:05;3.20;60.30
38265;DHT22;24062;47.480;8.768;2023-02-28T11:45:45;3.30;59.60
38265;DHT22;24062;47.480;8.768;2023-02-28T11:48:21;3.20;58.30
38265;DHT22;24062;47.480;8.768;2023-02-28T11:51:04;3.20;59.10
38265;DHT22;24062;47.480;8.768;2023-02-28T11:53:48;3.10;58.50
38265;DHT22;24062;47.480;8.768;2023-02-28T11:56:24;3.00;58.00
38265;DHT22;24062;47.480;8.768;2023-02-28T11:59:06;2.90;58.30
38265;DHT22;24062;47.480;8.768;2023-02-28T12:01:59;3.00;59.10
38265;DHT22;24062;47.480;8.768;2023-02-28T12:04:37;3.00;58.60
38265;DHT22;24062;47.480;8.768;2023-02-28T12:07:16;3.00;58.50
38265;DHT22;24062;47.480;8.768;2023-02-28T12:09:52;3.00;58.90
38265;DHT22;24062;47.480;8.768;2023-02-28T12:12:38;3.10;58.20
38265;DHT22;24062;47.480;8.768;2023-02-28T12:15:28;3.00;58.30
38265;DHT22;24062;47.480;8.768;2023-02-28T12:18:12;3.00;58.40
38265;DHT22;24062;47.480;8.768;2023-02-28T12:20:49;3.00;58.40
38265;DHT22;24062;47.480;8.768;2023-02-28T12:23:40;3.00;58.60
38265;DHT22;24062;47.480;8.768;2023-02-28T12:26:15;2.90;58.00
38265;DHT22;24062;47.480;8.768;2023-02-28T12:28:49;3.10;59.00
38265;DHT22;24062;47.480;8.768;2023-02-28T12:31:20;3.20;58.20
38265;DHT22;24062;47.480;8.768;2023-02-28T12:33:51;3.10;58.40
38265;DHT22;24062;47.480;8.768;2023-02-28T12:36:19;3.20;58.20
38265;DHT22;24062;47.480;8.768;2023-02-28T12:38:52;3.30;58.50
38265;DHT22;24062;47.480;8.768;2023-02-28T12:41:22;3.30;58.00
38265;DHT22;24062;47.480;8.768;2023-02-28T12:44:01;3.30;57.90
38265;DHT22;24062;47.480;8.768;2023-02-28T12:46:32;3.20;57.60
38265;DHT22;24062;47.480;8.768;2023-02-28T12:49:01;3.10;57.70
38265;DHT22;24062;47.480;8.768;2023-02-28T12:51:31;3.00;57.30
38265;DHT22;24062;47.480;8.768;2023-02-28T12:54:07;3.00;57.70
38265;DHT22;24062;47.480;8.768;2023-02-28T12:56:42;3.10;58.00
38265;DHT22;24062;47.480;8.768;2023-02-28T12:59:18;3.00;57.40
38265;DHT22;24062;47.480;8.768;2023-02-28T13:05:05;3.00;57.80
38265;DHT22;24062;47.480;8.768;2023-02-28T13:07:59;3.10;57.80
38265;DHT22;24062;47.480;8.768;2023-02-28T13:10:42;3.00;57.10
38265;DHT22;24062;47.480;8.768;2023-02-28T13:13:15;3.00;57.80
38265;DHT22;24062;47.480;8.768;2023-02-28T13:16:00;3.00;57.20
38265;DHT22;24062;47.480;8.768;2023-02-28T13:18:31;3.00;57.10
38265;DHT22;24062;47.480;8.768;2023-02-28T13:20:59;3.00;57.30
38265;DHT22;24062;47.480;8.768;2023-02-28T13:23:58;3.00;58.20
38265;DHT22;24062;47.480;8.768;2023-02-28T13:29:31;3.10;56.80
38265;DHT22;24062;47.480;8.768;2023-02-28T13:32:20;3.00;57.50
38265;DHT22;24062;47.480;8.768;2023-02-28T13:38:33;3.20;57.10
38265;DHT22;24062;47.480;8.768;2023-02-28T13:44:06;3.40;57.10
38265;DHT22;24062;47.480;8.768;2023-02-28T13:46:36;3.30;56.80
38265;DHT22;24062;47.480;8.768;2023-02-28T13:49:23;3.30;56.80
38265;DHT22;24062;47.480;8.768;2023-02-28T13:51:51;3.20;56.90
38265;DHT22;24062;47.480;8.768;2023-02-28T13:54:34;3.30;57.30
38265;DHT22;24062;47.480;8.768;2023-02-28T13:57:13;3.30;56.60
38265;DHT22;24062;47.480;8.768;2023-02-28T13:59:50;3.10;56.60
38265;DHT22;24062;47.480;8.768;2023-02-28T14:02:44;3.10;56.80
38265;DHT22;24062;47.480;8.768;2023-02-28T14:05:16;3.00;56.60
38265;DHT22;24062;47.480;8.768;2023-02-28T14:07:46;2.90;56.60
38265;DHT22;24062;47.480;8.768;2023-02-28T14:10:25;2.90;56.80
38265;DHT22;24062;47.480;8.768;2023-02-28T14:13:00;2.80;56.60
38265;DHT22;24062;47.480;8.768;2023-02-28T14:15:47;2.70;56.70
38265;DHT22;24062;47.480;8.768;2023-02-28T14:18:23;2.80;57.20
38265;DHT22;24062;47.480;8.768;2023-02-28T14:20:57;2.80;56.80
38265;DHT22;24062;47.480;8.768;2023-02-28T14:23:34;2.90;57.10
38265;DHT22;24062;47.480;8.768;2023-02-28T14:26:13;3.10;57.70
38265;DHT22;24062;47.480;8.768;2023-02-28T14:28:55;3.10;56.40
38265;DHT22;24062;47.480;8.768;2023-02-28T14:31:32;3.00;56.70
38265;DHT22;24062;47.480;8.768;2023-02-28T14:34:17;2.90;56.60
38265;DHT22;24062;47.480;8.768;2023-02-28T14:36:50;2.90;56.80
38265;DHT22;24062;47.480;8.768;2023-02-28T14:39:21;2.90;56.80
38265;DHT22;24062;47.480;8.768;2023-02-28T14:41:48;2.90;57.00
38265;DHT22;24062;47.480;8.768;2023-02-28T14:44:17;2.90;56.80
38265;DHT22;24062;47.480;8.768;2023-02-28T14:46:47;2.90;57.20
38265;DHT22;24062;47.480;8.768;2023-02-28T14:49:18;2.90;57.10
38265;DHT22;24062;47.480;8.768;2023-02-28T14:51:46;2.90;56.80
38265;DHT22;24062;47.480;8.768;2023-02-28T14:54:16;2.90;56.70
38265;DHT22;24062;47.480;8.768;2023-02-28T14:56:49;2.90;57.10
38265;DHT22;24062;47.480;8.768;2023-02-28T14:59:28;2.80;56.60
38265;DHT22;24062;47.480;8.768;2023-02-28T15:02:18;2.80;57.10
38265;DHT22;24062;47.480;8.768;2023-02-28T15:04:53;2.80;56.90
38265;DHT22;24062;47.480;8.768;2023-02-28T15:07:21;2.70;56.80
38265;DHT22;24062;47.480;8.768;2023-02-28T15:10:09;2.70;57.10
38265;DHT22;24062;47.480;8.768;2023-02-28T15:12:37;2.80;57.10
38265;DHT22;24062;47.480;8.768;2023-02-28T15:15:05;2.80;57.00
38265;DHT22;24062;47.480;8.768;2023-02-28T15:17:34;2.70;56.90
38265;DHT22;24062;47.480;8.768;2023-02-28T15:20:02;2.80;57.20
38265;DHT22;24062;47.480;8.768;2023-02-28T15:22:33;2.70;56.80
38265;DHT22;24062;47.480;8.768;2023-02-28T15:25:03;2.70;57.20
38265;DHT22;24062;47.480;8.768;2023-02-28T15:27:33;2.80;57.10
38265;DHT22;24062;47.480;8.768;2023-02-28T15:30:06;2.60;56.80
38265;DHT22;24062;47.480;8.768;2023-02-28T15:32:36;2.60;57.20
38265;DHT22;24062;47.480;8.768;2023-02-28T15:35:20;2.60;57.30
38265;DHT22;24062;47.480;8.768;2023-02-28T15:37:52;2.60;57.50
38265;DHT22;24062;47.480;8.768;2023-02-28T15:40:25;2.60;57.30
38265;DHT22;24062;47.480;8.768;2023-02-28T15:43:04;2.60;57.20
38265;DHT22;24062;47.480;8.768;2023-02-28T15:45:37;2.50;57.00
38265;DHT22;24062;47.480;8.768;2023-02-28T15:48:15;2.50;57.20
38265;DHT22;24062;47.480;8.768;2023-02-28T15:50:42;2.40;57.00
38265;DHT22;24062;47.480;8.768;2023-02-28T15:53:14;2.30;57.20
38265;DHT22;24062;47.480;8.768;2023-02-28T15:55:42;2.30;57.20
38265;DHT22;24062;47.480;8.768;2023-02-28T15:58:12;2.30;57.30
38265;DHT22;24062;47.480;8.768;2023-02-28T16:00:39;2.30;57.40
38265;DHT22;24062;47.480;8.768;2023-02-28T16:03:23;2.30;57.50
38265;DHT22;24062;47.480;8.768;2023-02-28T16:06:09;2.30;57.60
38265;DHT22;24062;47.480;8.768;2023-02-28T16:08:35;2.30;57.60
38265;DHT22;24062;47.480;8.768;2023-02-28T16:11:02;2.30;57.40
38265;DHT22;24062;47.480;8.768;2023-02-28T16:13:31;2.30;57.50
38265;DHT22;24062;47.480;8.768;2023-02-28T16:15:58;2.20;57.30
38265;DHT22;24062;47.480;8.768;2023-02-28T16:18:27;2.20;57.40
38265;DHT22;24062;47.480;8.768;2023-02-28T16:20:54;2.10;57.70
38265;DHT22;24062;47.480;8.768;2023-02-28T16:23:21;2.20;57.80
38265;DHT22;24062;47.480;8.768;2023-02-28T16:25:47;2.10;57.60
38265;DHT22;24062;47.480;8.768;2023-02-28T16:28:19;2.00;57.70